createdAt,value
2022-08-26T00:01:09.610Z,6.95
2022-08-26T00:03:56.925Z,7.05
2022-08-26T00:06:45.974Z,7.47
2022-08-26T00:09:33.819Z,6.97
2022-08-26T00:12:35.946Z,7.20
2022-08-26T00:15:25.569Z,7.88
2022-08-26T00:18:21.826Z,7.25
2022-08-26T00:21:10.979Z,7.53
2022-08-26T00:23:58.130Z,7.75
2022-08-26T00:26:45.343Z,7.38
2022-08-26T00:29:35.485Z,7.97
2022-08-26T00:32:24.702Z,7.90
2022-08-26T00:35:13.713Z,7.82
2022-08-26T00:38:02.374Z,7.70
2022-08-26T00:40:55.243Z,7.80
2022-08-26T00:43:46.224Z,7.60
2022-08-26T00:46:46.505Z,7.28
2022-08-26T00:49:38.813Z,7.90
2022-08-26T00:52:26.471Z,8.80
2022-08-26T00:55:38.192Z,8.93
2022-08-26T00:58:28.036Z,8.27
2022-08-26T01:01:17.060Z,8.52
2022-08-26T01:04:05.253Z,9.13
2022-08-26T01:06:53.749Z,8.95
2022-08-26T01:09:40.961Z,8.88
2022-08-26T01:12:31.768Z,9.65
2022-08-26T01:15:25.448Z,7.53
2022-08-26T01:18:14.533Z,7.65
2022-08-26T01:21:27.199Z,7.20
2022-08-26T01:24:14.774Z,7.75
2022-08-26T01:27:06.913Z,7.78
2022-08-26T01:29:54.991Z,7.88
2022-08-26T01:32:43.479Z,7.35
2022-08-26T01:35:30.823Z,7.88
2022-08-26T01:38:18.488Z,7.80
2022-08-26T01:41:16.166Z,8.70
2022-08-26T01:44:09.811Z,8.23
2022-08-26T01:46:58.875Z,8.25
2022-08-26T01:49:50.878Z,8.40
2022-08-26T01:52:44.389Z,8.40
2022-08-26T01:55:35.601Z,8.25
2022-08-26T01:58:35.174Z,8.57
2022-08-26T02:01:29.074Z,8.68
2022-08-26T02:04:26.018Z,9.13
2022-08-26T02:07:14.283Z,8.95
2022-08-26T02:10:01.534Z,9.50
2022-08-26T02:12:50.509Z,9.18
2022-08-26T02:15:42.852Z,9.40
2022-08-26T02:18:33.190Z,9.43
2022-08-26T02:21:20.467Z,9.73
2022-08-26T02:24:16.793Z,8.70
2022-08-26T02:27:05.458Z,8.98
2022-08-26T02:29:57.794Z,9.38
2022-08-26T02:32:46.425Z,8.80
2022-08-26T02:35:37.755Z,9.38
2022-08-26T02:38:26.084Z,9.45
2022-08-26T02:41:13.244Z,9.10
2022-08-26T02:44:01.283Z,8.93
2022-08-26T02:46:48.816Z,10.80
2022-08-26T02:49:37.798Z,12.82
2022-08-26T02:52:25.446Z,10.90
2022-08-26T02:55:12.754Z,11.05
2022-08-26T02:58:01.193Z,11.85
2022-08-26T03:00:53.014Z,12.80
2022-08-26T03:03:41.116Z,14.05
2022-08-26T03:06:29.276Z,16.52
2022-08-26T03:09:18.982Z,14.15
2022-08-26T03:12:06.357Z,14.27
2022-08-26T03:14:54.810Z,12.50
2022-08-26T03:17:43.086Z,11.60
2022-08-26T03:20:31.089Z,11.32
2022-08-26T03:23:18.609Z,11.45
2022-08-26T03:26:08.525Z,11.13
2022-08-26T03:29:16.714Z,10.75
2022-08-26T03:32:04.338Z,11.90
2022-08-26T03:34:51.585Z,16.42
2022-08-26T03:37:39.368Z,11.55
2022-08-26T03:40:29.133Z,11.00
2022-08-26T03:43:17.219Z,11.10
2022-08-26T03:46:06.574Z,12.30
2022-08-26T03:48:54.061Z,12.70
2022-08-26T03:51:41.217Z,13.20
2022-08-26T03:54:29.700Z,13.55
2022-08-26T03:57:17.172Z,14.18
2022-08-26T04:00:08.845Z,14.13
2022-08-26T04:02:56.476Z,12.68
2022-08-26T04:05:43.732Z,12.38
2022-08-26T04:08:32.267Z,12.63
2022-08-26T04:11:23.138Z,13.05
2022-08-26T04:17:02.787Z,13.98
2022-08-26T04:19:49.940Z,15.30
2022-08-26T04:22:37.056Z,14.05
2022-08-26T04:25:24.424Z,13.77
2022-08-26T04:28:12.125Z,13.23
2022-08-26T04:30:59.360Z,12.77
2022-08-26T04:33:49.520Z,13.10
2022-08-26T04:36:37.278Z,12.13
2022-08-26T04:39:25.333Z,12.27
2022-08-26T04:42:17.920Z,12.05
2022-08-26T04:45:09.919Z,11.43
2022-08-26T04:47:57.738Z,10.85
2022-08-26T04:50:45.009Z,10.02
2022-08-26T04:53:37.323Z,10.63
2022-08-26T04:56:30.249Z,11.70
2022-08-26T04:59:18.271Z,10.75
2022-08-26T05:02:06.824Z,10.73
2022-08-26T05:04:54.087Z,12.52
2022-08-26T05:07:41.525Z,12.40
2022-08-26T05:10:29.000Z,11.48
2022-08-26T05:13:18.555Z,12.00
2022-08-26T05:16:11.600Z,11.25
2022-08-26T05:18:59.097Z,11.50
2022-08-26T05:21:48.473Z,11.35
2022-08-26T05:24:36.525Z,10.82
2022-08-26T05:27:25.281Z,10.82
2022-08-26T05:30:12.645Z,10.32
2022-08-26T05:32:59.873Z,9.63
2022-08-26T05:35:47.663Z,9.23
2022-08-26T05:38:35.459Z,9.65
2022-08-26T05:41:28.283Z,9.38
2022-08-26T05:44:24.477Z,9.63
2022-08-26T05:47:11.932Z,10.40
2022-08-26T05:50:00.553Z,10.00
2022-08-26T05:52:49.319Z,9.93
2022-08-26T05:55:43.469Z,9.52
2022-08-26T05:58:33.299Z,9.88
2022-08-26T06:01:26.156Z,8.50
2022-08-26T06:04:14.120Z,8.38
2022-08-26T06:07:01.278Z,8.15
2022-08-26T06:09:48.392Z,8.05
2022-08-26T06:12:37.529Z,8.15
2022-08-26T06:15:25.147Z,7.13
2022-08-26T06:18:14.673Z,8.25
2022-08-26T06:21:22.210Z,8.07
2022-08-26T06:24:30.980Z,7.55
2022-08-26T06:27:18.252Z,7.45
2022-08-26T06:30:07.457Z,7.57
2022-08-26T06:32:54.605Z,7.80
2022-08-26T06:35:42.552Z,7.32
2022-08-26T06:38:29.768Z,7.65
2022-08-26T06:41:18.083Z,7.20
2022-08-26T06:44:07.454Z,7.32
2022-08-26T06:46:54.754Z,7.70
2022-08-26T06:49:42.000Z,6.90
2022-08-26T06:52:31.565Z,6.90
2022-08-26T06:55:18.725Z,6.32
2022-08-26T06:58:06.501Z,6.85
2022-08-26T07:00:53.685Z,7.10
2022-08-26T07:03:41.043Z,6.38
2022-08-26T07:06:28.974Z,7.20
2022-08-26T07:09:16.889Z,6.15
2022-08-26T07:12:04.486Z,7.18
2022-08-26T07:14:51.916Z,7.07
2022-08-26T07:17:41.128Z,6.22
2022-08-26T07:20:28.813Z,6.43
2022-08-26T07:23:16.916Z,6.13
2022-08-26T07:26:06.565Z,6.13
2022-08-26T07:28:55.791Z,5.95
2022-08-26T07:31:43.154Z,5.93
2022-08-26T07:34:32.270Z,5.80
2022-08-26T07:40:09.429Z,5.65
2022-08-26T07:42:57.865Z,6.03
2022-08-26T07:45:48.286Z,5.88
2022-08-26T07:48:35.959Z,5.85
2022-08-26T07:51:23.402Z,5.28
2022-08-26T07:54:12.180Z,5.57
2022-08-26T07:57:00.192Z,5.90
2022-08-26T07:59:47.386Z,5.70
2022-08-26T08:02:34.742Z,5.53
2022-08-26T08:05:22.793Z,5.68
2022-08-26T08:08:27.785Z,5.18
2022-08-26T08:11:16.785Z,5.10
2022-08-26T08:14:04.453Z,5.95
2022-08-26T08:16:55.976Z,5.90
2022-08-26T08:19:43.273Z,5.88
2022-08-26T08:22:30.422Z,6.13
2022-08-26T08:25:17.834Z,5.63
2022-08-26T08:28:05.085Z,5.15
2022-08-26T08:30:52.342Z,5.80
2022-08-26T08:33:39.542Z,5.45
2022-08-26T08:36:27.877Z,5.90
2022-08-26T08:39:23.568Z,5.25
2022-08-26T08:42:45.987Z,5.90
2022-08-26T08:45:37.884Z,5.47
2022-08-26T08:48:31.482Z,5.75
2022-08-26T08:51:22.097Z,5.88
2022-08-26T08:54:10.409Z,6.10
2022-08-26T08:57:26.775Z,5.80
2022-08-26T09:00:18.332Z,5.60
2022-08-26T09:03:26.347Z,6.40
2022-08-26T09:06:20.420Z,6.38
2022-08-26T09:09:08.174Z,6.88
2022-08-26T09:11:58.643Z,6.43
2022-08-26T09:17:45.735Z,6.82
2022-08-26T09:20:38.923Z,6.10
2022-08-26T09:23:27.254Z,5.85
2022-08-26T09:26:25.866Z,6.18
2022-08-26T09:29:25.196Z,5.68
2022-08-26T09:32:35.071Z,5.65
2022-08-26T09:35:26.909Z,6.20
2022-08-26T09:38:26.570Z,5.57
2022-08-26T09:41:40.471Z,6.65
2022-08-26T09:44:27.614Z,6.50
2022-08-26T09:47:14.962Z,6.20
2022-08-26T09:50:18.600Z,6.18
2022-08-26T09:53:12.908Z,5.78
2022-08-26T09:56:12.222Z,6.40
2022-08-26T09:59:01.007Z,5.80
2022-08-26T10:01:49.207Z,6.15
2022-08-26T10:04:37.392Z,6.13
2022-08-26T10:07:45.921Z,5.90
2022-08-26T10:10:39.505Z,7.13
2022-08-26T10:13:34.343Z,6.88
2022-08-26T10:16:33.808Z,6.05
2022-08-26T10:22:50.003Z,8.13
2022-08-26T10:26:19.250Z,7.82
2022-08-26T10:29:12.875Z,8.50
2022-08-26T10:32:04.764Z,7.32
2022-08-26T10:34:52.796Z,7.32
2022-08-26T10:38:04.741Z,7.82
2022-08-26T10:41:02.651Z,8.02
2022-08-26T10:44:02.869Z,8.63
2022-08-26T10:46:56.871Z,9.73
2022-08-26T10:49:47.589Z,9.75
2022-08-26T10:52:55.224Z,5.57
2022-08-26T10:56:06.133Z,5.35
2022-08-26T10:59:15.135Z,8.07
2022-08-26T11:02:25.283Z,7.72
2022-08-26T11:05:19.711Z,9.40
2022-08-26T11:08:33.988Z,10.63
2022-08-26T11:11:39.611Z,8.82
2022-08-26T11:14:34.105Z,7.18
2022-08-26T11:18:07.336Z,8.57
2022-08-26T11:20:55.117Z,9.27
2022-08-26T11:23:50.615Z,8.88
2022-08-26T11:26:56.192Z,8.20
2022-08-26T11:30:02.715Z,8.60
2022-08-26T11:32:58.336Z,8.63
2022-08-26T11:35:48.108Z,7.10
2022-08-26T11:38:40.940Z,7.47
2022-08-26T11:41:30.003Z,6.53
2022-08-26T11:44:23.967Z,6.63
2022-08-26T11:47:15.186Z,6.45
2022-08-26T11:50:16.830Z,6.90
2022-08-26T11:53:06.555Z,6.45
2022-08-26T11:55:56.837Z,5.60
2022-08-26T12:01:36.853Z,5.78
2022-08-26T12:04:31.726Z,5.78
2022-08-26T12:07:24.531Z,5.57
2022-08-26T12:10:26.206Z,5.35
2022-08-26T12:19:32.884Z,5.70
2022-08-26T12:22:34.558Z,5.80
2022-08-26T12:25:24.072Z,5.68
2022-08-26T12:28:11.729Z,5.85
2022-08-26T12:31:06.614Z,6.13
2022-08-26T12:33:55.393Z,6.50
2022-08-26T12:36:46.764Z,6.63
2022-08-26T12:39:36.723Z,6.10
2022-08-26T12:42:40.457Z,6.53
2022-08-26T12:45:30.595Z,6.03
2022-08-26T12:51:22.987Z,6.15
2022-08-26T12:54:14.413Z,5.90
2022-08-26T12:57:12.603Z,5.70
2022-08-26T13:00:30.933Z,5.68
2022-08-26T13:03:28.906Z,6.45
2022-08-26T13:06:29.810Z,6.22
2022-08-26T13:09:16.892Z,6.30
2022-08-26T13:12:04.770Z,5.45
2022-08-26T13:14:52.020Z,5.70
2022-08-26T13:17:39.221Z,4.70
2022-08-26T13:20:26.764Z,6.15
2022-08-26T13:23:14.767Z,5.18
2022-08-26T13:26:02.639Z,5.03
2022-08-26T13:29:01.319Z,5.32
2022-08-26T13:31:50.373Z,5.85
2022-08-26T13:34:38.188Z,5.65
2022-08-26T13:37:34.418Z,5.57
2022-08-26T13:40:23.423Z,5.97
2022-08-26T13:43:11.746Z,5.75
2022-08-26T13:45:58.916Z,5.90
2022-08-26T13:48:47.300Z,5.72
2022-08-26T13:51:34.691Z,5.55
2022-08-26T13:54:22.087Z,5.57
2022-08-26T13:57:09.801Z,5.28
2022-08-26T13:59:59.008Z,6.25
2022-08-26T14:02:47.035Z,5.37
2022-08-26T14:05:34.425Z,5.25
2022-08-26T14:08:23.138Z,5.63
2022-08-26T14:11:10.500Z,5.60
2022-08-26T14:13:57.903Z,5.40
2022-08-26T14:16:59.004Z,5.25
2022-08-26T14:19:49.249Z,4.95
2022-08-26T14:22:40.523Z,5.30
2022-08-26T14:25:32.434Z,4.57
2022-08-26T14:28:19.645Z,4.75
2022-08-26T14:31:06.983Z,5.43
2022-08-26T14:33:57.305Z,4.97
2022-08-26T14:36:44.407Z,4.88
2022-08-26T14:39:32.666Z,4.57
2022-08-26T14:42:26.303Z,5.00
2022-08-26T14:45:21.781Z,4.88
2022-08-26T14:48:09.801Z,4.63
2022-08-26T14:50:57.081Z,4.85
2022-08-26T14:54:03.172Z,5.15
2022-08-26T14:56:53.880Z,5.25
2022-08-26T14:59:49.880Z,5.10
2022-08-26T15:02:39.528Z,4.93
2022-08-26T15:05:26.835Z,4.68
2022-08-26T15:08:14.304Z,4.95
2022-08-26T15:11:01.450Z,4.60
2022-08-26T15:13:48.895Z,4.70
2022-08-26T15:16:36.834Z,5.00
2022-08-26T15:19:25.894Z,4.78
2022-08-26T15:22:13.246Z,4.90
2022-08-26T15:25:00.527Z,4.70
2022-08-26T15:27:47.697Z,4.70
2022-08-26T15:30:35.165Z,4.50
2022-08-26T15:33:22.591Z,4.80
2022-08-26T15:36:10.236Z,4.50
2022-08-26T15:38:59.253Z,3.85
2022-08-26T15:41:46.566Z,3.65
2022-08-26T15:44:34.153Z,3.47
2022-08-26T15:47:22.354Z,3.50
2022-08-26T15:50:09.845Z,3.60
2022-08-26T15:52:57.111Z,3.55
2022-08-26T15:55:44.677Z,4.15
2022-08-26T15:58:31.791Z,3.53
2022-08-26T16:01:27.233Z,3.67
2022-08-26T16:04:15.277Z,3.70
2022-08-26T16:07:03.480Z,3.95
2022-08-26T16:09:54.179Z,4.00
2022-08-26T16:12:42.299Z,4.20
2022-08-26T16:15:29.602Z,4.13
2022-08-26T16:18:16.924Z,4.05
2022-08-26T16:21:13.251Z,4.05
2022-08-26T16:24:01.575Z,4.22
2022-08-26T16:26:49.499Z,4.60
2022-08-26T16:29:39.359Z,4.20
2022-08-26T16:32:30.757Z,4.50
2022-08-26T16:35:18.624Z,4.28
2022-08-26T16:38:06.638Z,4.90
2022-08-26T16:40:53.983Z,4.43
2022-08-26T16:43:41.304Z,4.50
2022-08-26T16:46:28.762Z,4.47
2022-08-26T16:49:16.004Z,4.57
2022-08-26T16:52:03.818Z,4.88
2022-08-26T16:54:51.998Z,4.38
2022-08-26T16:57:40.538Z,4.78
2022-08-26T17:00:30.822Z,4.35
2022-08-26T17:03:18.103Z,4.40
2022-08-26T17:06:05.722Z,4.18
2022-08-26T17:08:53.026Z,4.20
2022-08-26T17:11:40.570Z,4.22
2022-08-26T17:14:27.884Z,3.85
2022-08-26T17:17:16.044Z,4.10
2022-08-26T17:20:09.132Z,4.07
2022-08-26T17:22:56.781Z,3.83
2022-08-26T17:25:44.351Z,3.70
2022-08-26T17:28:31.975Z,3.83
2022-08-26T17:31:19.816Z,3.72
2022-08-26T17:34:07.341Z,4.03
2022-08-26T17:36:54.867Z,3.95
2022-08-26T17:39:43.994Z,3.80
2022-08-26T17:42:31.667Z,3.90
2022-08-26T17:48:08.780Z,4.25
2022-08-26T17:50:56.489Z,4.28
2022-08-26T17:53:43.621Z,4.32
2022-08-26T17:56:31.047Z,4.28
2022-08-26T17:59:18.228Z,5.28
2022-08-26T18:02:05.514Z,4.97
2022-08-26T18:04:52.764Z,4.53
2022-08-26T18:07:43.704Z,5.15
2022-08-26T18:10:31.519Z,5.90
2022-08-26T18:13:19.012Z,5.70
2022-08-26T18:16:06.808Z,5.65
2022-08-26T18:18:54.386Z,5.80
2022-08-26T18:21:41.923Z,5.90
2022-08-26T18:24:32.156Z,5.25
2022-08-26T18:27:19.336Z,5.10
2022-08-26T18:30:15.842Z,4.80
2022-08-26T18:33:04.101Z,5.88
2022-08-26T18:35:51.277Z,5.53
2022-08-26T18:38:38.631Z,5.63
2022-08-26T18:41:35.040Z,6.13
2022-08-26T18:44:24.453Z,6.53
2022-08-26T18:47:12.275Z,6.70
2022-08-26T18:50:01.153Z,6.05
2022-08-26T18:52:48.298Z,7.13
2022-08-26T18:55:35.522Z,6.28
2022-08-26T18:58:22.974Z,6.88
2022-08-26T19:01:11.025Z,6.00
2022-08-26T19:04:00.308Z,6.72
2022-08-26T19:06:50.768Z,6.78
2022-08-26T19:09:38.061Z,7.13
2022-08-26T19:12:27.029Z,6.90
2022-08-26T19:15:14.400Z,7.15
2022-08-26T19:18:01.740Z,6.75
2022-08-26T19:20:48.971Z,7.40
2022-08-26T19:23:36.586Z,7.63
2022-08-26T19:26:25.468Z,7.30
2022-08-26T19:29:13.811Z,7.57
2022-08-26T19:32:02.048Z,7.68
2022-08-26T19:34:50.950Z,8.05
2022-08-26T19:37:38.500Z,8.48
2022-08-26T19:40:25.886Z,8.70
2022-08-26T19:43:13.546Z,9.32
2022-08-26T19:46:09.101Z,9.55
2022-08-26T19:48:58.235Z,10.50
2022-08-26T19:51:45.435Z,10.55
2022-08-26T19:54:33.366Z,9.25
2022-08-26T19:57:20.644Z,10.95
2022-08-26T20:00:11.560Z,11.23
2022-08-26T20:05:46.138Z,12.45
2022-08-26T20:08:35.160Z,12.10
2022-08-26T20:11:23.272Z,12.45
2022-08-26T20:14:13.604Z,13.45
2022-08-26T20:17:02.253Z,12.38
2022-08-26T20:20:07.816Z,12.48
2022-08-26T20:23:16.750Z,12.00
2022-08-26T20:26:04.046Z,11.82
2022-08-26T20:28:51.372Z,12.15
2022-08-26T20:31:39.530Z,11.52
2022-08-26T20:34:27.067Z,10.60
2022-08-26T20:37:14.228Z,10.07
2022-08-26T20:40:02.166Z,9.57
2022-08-26T20:42:49.572Z,9.48
2022-08-26T20:45:36.758Z,10.55
2022-08-26T20:48:24.030Z,9.88
2022-08-26T20:51:11.851Z,8.60
2022-08-26T20:53:59.602Z,8.02
2022-08-26T20:56:47.433Z,8.05
2022-08-26T20:59:34.744Z,7.53
2022-08-26T21:02:22.004Z,8.20
2022-08-26T21:05:09.378Z,8.05
2022-08-26T21:07:56.555Z,8.00
2022-08-26T21:10:43.954Z,7.55
2022-08-26T21:13:48.344Z,7.63
2022-08-26T21:16:41.868Z,9.50
2022-08-26T21:19:29.186Z,9.48
2022-08-26T21:22:16.341Z,9.60
2022-08-26T21:25:04.074Z,9.63
2022-08-26T21:27:51.306Z,10.23
2022-08-26T21:30:40.096Z,10.77
2022-08-26T21:33:27.802Z,11.52
2022-08-26T21:36:17.960Z,11.45
2022-08-26T21:39:10.765Z,11.55
2022-08-26T21:41:59.896Z,12.02
2022-08-26T21:44:48.986Z,12.38
2022-08-26T21:47:40.601Z,11.75
2022-08-26T21:50:29.487Z,12.35
2022-08-26T21:53:16.668Z,10.32
2022-08-26T21:56:07.223Z,11.38
2022-08-26T21:58:55.755Z,11.80
2022-08-26T22:01:42.960Z,11.10
2022-08-26T22:04:30.216Z,10.35
2022-08-26T22:07:19.797Z,12.90
2022-08-26T22:10:07.993Z,12.05
2022-08-26T22:12:56.002Z,11.77
2022-08-26T22:15:43.419Z,10.93
2022-08-26T22:18:30.906Z,11.13
2022-08-26T22:21:24.276Z,10.18
2022-08-26T22:24:12.182Z,10.40
2022-08-26T22:26:59.395Z,11.13
2022-08-26T22:29:48.025Z,10.23
2022-08-26T22:32:35.257Z,9.85
2022-08-26T22:35:28.170Z,9.75
2022-08-26T22:38:17.674Z,10.48
2022-08-26T22:41:08.432Z,10.98
2022-08-26T22:46:44.317Z,12.57
2022-08-26T22:49:31.695Z,12.43
2022-08-26T22:52:18.811Z,11.50
2022-08-26T22:55:06.702Z,10.73
2022-08-26T22:57:54.026Z,10.05
2022-08-26T23:00:42.485Z,9.35
2022-08-26T23:03:31.819Z,10.57
2022-08-26T23:06:19.054Z,10.43
2022-08-26T23:09:07.741Z,12.13
2022-08-26T23:11:57.746Z,11.00
2022-08-26T23:14:44.952Z,10.90
2022-08-26T23:17:32.353Z,11.02
2022-08-26T23:20:19.873Z,10.52
2022-08-26T23:23:07.295Z,11.70
2022-08-26T23:25:55.321Z,12.30
2022-08-26T23:28:42.930Z,12.02
2022-08-26T23:31:30.251Z,11.85
2022-08-26T23:34:35.990Z,11.85
2022-08-26T23:37:23.746Z,11.55
2022-08-26T23:40:20.813Z,11.63
2022-08-26T23:43:11.310Z,12.02
2022-08-26T23:45:58.613Z,12.23
2022-08-26T23:48:46.135Z,12.30
2022-08-26T23:51:51.838Z,11.32
2022-08-26T23:54:40.281Z,11.35
2022-08-26T23:57:27.592Z,11.15
